sensor_id;sensor_type;location;lat;lon;timestamp;P1;durP1;ratioP1;P2;durP2;ratioP2
4519;SDS011;2272;49.226;8.108;2022-12-18T00:00:39;37.83;;;17.00;;
4519;SDS011;2272;49.226;8.108;2022-12-18T00:03:07;28.83;;;15.73;;
4519;SDS011;2272;49.226;8.108;2022-12-18T00:05:35;37.50;;;16.47;;
4519;SDS011;2272;49.226;8.108;2022-12-18T00:08:02;39.70;;;16.83;;
4519;SDS011;2272;49.226;8.108;2022-12-18T00:10:28;36.33;;;16.40;;
4519;SDS011;2272;49.226;8.108;2022-12-18T00:12:55;49.00;;;18.43;;
4519;SDS011;2272;49.226;8.108;2022-12-18T00:15:23;42.53;;;18.23;;
4519;SDS011;2272;49.226;8.108;2022-12-18T00:17:50;36.17;;;17.37;;
4519;SDS011;2272;49.226;8.108;2022-12-18T00:20:17;41.60;;;17.50;;
4519;SDS011;2272;49.226;8.108;2022-12-18T00:22:50;39.77;;;17.70;;
4519;SDS011;2272;49.226;8.108;2022-12-18T00:25:17;42.80;;;17.53;;
4519;SDS011;2272;49.226;8.108;2022-12-18T00:27:43;51.43;;;19.20;;
4519;SDS011;2272;49.226;8.108;2022-12-18T00:30:10;48.13;;;18.30;;
4519;SDS011;2272;49.226;8.108;2022-12-18T00:32:39;50.83;;;19.20;;
4519;SDS011;2272;49.226;8.108;2022-12-18T00:35:06;40.13;;;16.53;;
4519;SDS011;2272;49.226;8.108;2022-12-18T00:37:33;48.73;;;18.87;;
4519;SDS011;2272;49.226;8.108;2022-12-18T00:40:00;56.43;;;18.70;;
4519;SDS011;2272;49.226;8.108;2022-12-18T00:42:26;50.60;;;19.60;;
4519;SDS011;2272;49.226;8.108;2022-12-18T00:45:10;55.87;;;19.57;;
4519;SDS011;2272;49.226;8.108;2022-12-18T00:47:38;46.73;;;19.47;;
4519;SDS011;2272;49.226;8.108;2022-12-18T00:50:06;60.03;;;21.60;;
4519;SDS011;2272;49.226;8.108;2022-12-18T00:52:34;57.07;;;19.37;;
4519;SDS011;2272;49.226;8.108;2022-12-18T00:55:00;46.03;;;19.03;;
4519;SDS011;2272;49.226;8.108;2022-12-18T00:57:27;49.97;;;20.00;;
4519;SDS011;2272;49.226;8.108;2022-12-18T00:59:54;50.43;;;20.10;;
4519;SDS011;2272;49.226;8.108;2022-12-18T01:02:20;46.13;;;18.90;;
4519;SDS011;2272;49.226;8.108;2022-12-18T01:04:48;55.70;;;18.97;;
4519;SDS011;2272;49.226;8.108;2022-12-18T01:07:15;57.30;;;19.33;;
4519;SDS011;2272;49.226;8.108;2022-12-18T01:09:42;46.90;;;18.70;;
4519;SDS011;2272;49.226;8.108;2022-12-18T01:12:09;43.43;;;17.70;;
4519;SDS011;2272;49.226;8.108;2022-12-18T01:14:35;46.67;;;18.50;;
4519;SDS011;2272;49.226;8.108;2022-12-18T01:17:02;51.37;;;21.00;;
4519;SDS011;2272;49.226;8.108;2022-12-18T01:19:29;46.80;;;19.30;;
4519;SDS011;2272;49.226;8.108;2022-12-18T01:21:58;48.67;;;19.30;;
4519;SDS011;2272;49.226;8.108;2022-12-18T01:24:24;46.93;;;18.60;;
4519;SDS011;2272;49.226;8.108;2022-12-18T01:26:51;46.77;;;18.93;;
4519;SDS011;2272;49.226;8.108;2022-12-18T01:29:18;42.27;;;20.40;;
4519;SDS011;2272;49.226;8.108;2022-12-18T01:31:45;54.33;;;21.07;;
4519;SDS011;2272;49.226;8.108;2022-12-18T01:34:11;49.87;;;19.20;;
4519;SDS011;2272;49.226;8.108;2022-12-18T01:36:38;66.20;;;21.33;;
4519;SDS011;2272;49.226;8.108;2022-12-18T01:39:07;51.17;;;20.37;;
4519;SDS011;2272;49.226;8.108;2022-12-18T01:41:37;52.37;;;21.50;;
4519;SDS011;2272;49.226;8.108;2022-12-18T01:47:29;43.73;;;19.27;;
4519;SDS011;2272;49.226;8.108;2022-12-18T01:49:59;52.90;;;20.47;;
4519;SDS011;2272;49.226;8.108;2022-12-18T01:52:31;50.70;;;20.93;;
4519;SDS011;2272;49.226;8.108;2022-12-18T01:55:00;50.57;;;21.17;;
4519;SDS011;2272;49.226;8.108;2022-12-18T01:57:30;54.73;;;18.50;;
4519;SDS011;2272;49.226;8.108;2022-12-18T01:59:59;57.70;;;20.90;;
4519;SDS011;2272;49.226;8.108;2022-12-18T02:02:28;49.37;;;19.73;;
4519;SDS011;2272;49.226;8.108;2022-12-18T02:04:56;44.67;;;19.33;;
4519;SDS011;2272;49.226;8.108;2022-12-18T02:07:24;48.37;;;21.07;;
4519;SDS011;2272;49.226;8.108;2022-12-18T02:10:03;49.23;;;21.03;;
4519;SDS011;2272;49.226;8.108;2022-12-18T02:12:39;45.83;;;20.80;;
4519;SDS011;2272;49.226;8.108;2022-12-18T02:15:12;46.10;;;19.67;;
4519;SDS011;2272;49.226;8.108;2022-12-18T02:17:43;51.60;;;20.10;;
4519;SDS011;2272;49.226;8.108;2022-12-18T02:20:16;57.23;;;20.00;;
4519;SDS011;2272;49.226;8.108;2022-12-18T02:22:49;49.20;;;20.83;;
4519;SDS011;2272;49.226;8.108;2022-12-18T02:25:32;45.43;;;18.30;;
4519;SDS011;2272;49.226;8.108;2022-12-18T02:28:13;48.27;;;18.93;;
4519;SDS011;2272;49.226;8.108;2022-12-18T02:30:44;43.93;;;18.47;;
4519;SDS011;2272;49.226;8.108;2022-12-18T02:33:13;45.90;;;19.93;;
4519;SDS011;2272;49.226;8.108;2022-12-18T02:35:41;60.00;;;20.00;;
4519;SDS011;2272;49.226;8.108;2022-12-18T02:38:11;53.40;;;20.47;;
4519;SDS011;2272;49.226;8.108;2022-12-18T02:40:38;53.40;;;20.40;;
4519;SDS011;2272;49.226;8.108;2022-12-18T02:43:07;42.67;;;20.97;;
4519;SDS011;2272;49.226;8.108;2022-12-18T02:45:36;49.43;;;19.70;;
4519;SDS011;2272;49.226;8.108;2022-12-18T02:48:12;46.80;;;18.90;;
4519;SDS011;2272;49.226;8.108;2022-12-18T02:50:41;55.97;;;19.90;;
4519;SDS011;2272;49.226;8.108;2022-12-18T02:53:15;52.77;;;22.27;;
4519;SDS011;2272;49.226;8.108;2022-12-18T02:55:51;42.23;;;18.80;;
4519;SDS011;2272;49.226;8.108;2022-12-18T02:58:30;59.80;;;24.00;;
4519;SDS011;2272;49.226;8.108;2022-12-18T03:01:06;43.47;;;20.47;;
4519;SDS011;2272;49.226;8.108;2022-12-18T03:03:38;55.83;;;20.90;;
4519;SDS011;2272;49.226;8.108;2022-12-18T03:06:08;41.37;;;20.20;;
4519;SDS011;2272;49.226;8.108;2022-12-18T03:08:41;53.70;;;20.23;;
4519;SDS011;2272;49.226;8.108;2022-12-18T03:11:11;41.93;;;18.50;;
4519;SDS011;2272;49.226;8.108;2022-12-18T03:13:40;50.57;;;19.97;;
4519;SDS011;2272;49.226;8.108;2022-12-18T03:16:14;50.73;;;20.07;;
4519;SDS011;2272;49.226;8.108;2022-12-18T03:18:45;43.53;;;17.93;;
4519;SDS011;2272;49.226;8.108;2022-12-18T03:21:15;49.17;;;19.13;;
4519;SDS011;2272;49.226;8.108;2022-12-18T03:23:46;59.73;;;21.40;;
4519;SDS011;2272;49.226;8.108;2022-12-18T03:26:16;40.20;;;17.37;;
4519;SDS011;2272;49.226;8.108;2022-12-18T03:28:46;55.20;;;20.47;;
4519;SDS011;2272;49.226;8.108;2022-12-18T03:31:18;51.17;;;20.97;;
4519;SDS011;2272;49.226;8.108;2022-12-18T03:33:51;43.03;;;20.13;;
4519;SDS011;2272;49.226;8.108;2022-12-18T03:36:19;50.33;;;18.53;;
4519;SDS011;2272;49.226;8.108;2022-12-18T03:38:46;36.07;;;18.47;;
4519;SDS011;2272;49.226;8.108;2022-12-18T03:41:15;48.70;;;20.47;;
4519;SDS011;2272;49.226;8.108;2022-12-18T03:43:47;52.00;;;20.50;;
4519;SDS011;2272;49.226;8.108;2022-12-18T03:46:22;43.77;;;19.17;;
4519;SDS011;2272;49.226;8.108;2022-12-18T03:48:54;43.03;;;19.57;;
4519;SDS011;2272;49.226;8.108;2022-12-18T03:51:26;47.63;;;19.40;;
4519;SDS011;2272;49.226;8.108;2022-12-18T03:54:00;42.90;;;19.47;;
4519;SDS011;2272;49.226;8.108;2022-12-18T03:56:30;46.13;;;19.77;;
4519;SDS011;2272;49.226;8.108;2022-12-18T03:59:01;42.30;;;20.00;;
4519;SDS011;2272;49.226;8.108;2022-12-18T04:01:32;36.97;;;20.13;;
4519;SDS011;2272;49.226;8.108;2022-12-18T04:04:02;55.17;;;20.07;;
4519;SDS011;2272;49.226;8.108;2022-12-18T04:06:30;61.73;;;21.60;;
4519;SDS011;2272;49.226;8.108;2022-12-18T04:08:58;52.83;;;21.10;;
4519;SDS011;2272;49.226;8.108;2022-12-18T04:11:25;52.67;;;20.90;;
4519;SDS011;2272;49.226;8.108;2022-12-18T04:13:56;58.33;;;22.90;;
4519;SDS011;2272;49.226;8.108;2022-12-18T04:16:23;58.93;;;22.13;;
4519;SDS011;2272;49.226;8.108;2022-12-18T04:18:52;59.50;;;22.57;;
4519;SDS011;2272;49.226;8.108;2022-12-18T04:21:19;45.07;;;21.10;;
4519;SDS011;2272;49.226;8.108;2022-12-18T04:23:47;59.67;;;23.00;;
4519;SDS011;2272;49.226;8.108;2022-12-18T04:26:14;52.97;;;21.17;;
4519;SDS011;2272;49.226;8.108;2022-12-18T04:28:41;55.70;;;22.27;;
4519;SDS011;2272;49.226;8.108;2022-12-18T04:31:07;56.80;;;22.80;;
4519;SDS011;2272;49.226;8.108;2022-12-18T04:33:34;42.70;;;21.60;;
4519;SDS011;2272;49.226;8.108;2022-12-18T04:36:02;48.00;;;22.00;;
4519;SDS011;2272;49.226;8.108;2022-12-18T04:38:29;47.80;;;20.43;;
4519;SDS011;2272;49.226;8.108;2022-12-18T04:40:56;49.30;;;21.07;;
4519;SDS011;2272;49.226;8.108;2022-12-18T04:43:23;51.00;;;22.90;;
4519;SDS011;2272;49.226;8.108;2022-12-18T04:45:49;56.20;;;22.53;;
4519;SDS011;2272;49.226;8.108;2022-12-18T04:48:16;49.60;;;20.93;;
4519;SDS011;2272;49.226;8.108;2022-12-18T04:50:43;46.20;;;21.60;;
4519;SDS011;2272;49.226;8.108;2022-12-18T04:53:11;58.90;;;21.70;;
4519;SDS011;2272;49.226;8.108;2022-12-18T04:55:37;53.30;;;23.07;;
4519;SDS011;2272;49.226;8.108;2022-12-18T04:58:04;60.50;;;23.20;;
4519;SDS011;2272;49.226;8.108;2022-12-18T05:00:31;48.53;;;22.97;;
4519;SDS011;2272;49.226;8.108;2022-12-18T05:02:57;58.60;;;21.43;;
4519;SDS011;2272;49.226;8.108;2022-12-18T05:05:26;47.70;;;20.27;;
4519;SDS011;2272;49.226;8.108;2022-12-18T05:07:53;52.07;;;19.03;;
4519;SDS011;2272;49.226;8.108;2022-12-18T05:10:21;50.07;;;21.27;;
4519;SDS011;2272;49.226;8.108;2022-12-18T05:12:48;51.83;;;20.80;;
4519;SDS011;2272;49.226;8.108;2022-12-18T05:15:27;47.67;;;21.33;;
4519;SDS011;2272;49.226;8.108;2022-12-18T05:17:55;52.37;;;20.57;;
4519;SDS011;2272;49.226;8.108;2022-12-18T05:20:22;48.30;;;21.03;;
4519;SDS011;2272;49.226;8.108;2022-12-18T05:22:49;52.90;;;23.10;;
4519;SDS011;2272;49.226;8.108;2022-12-18T05:25:16;56.27;;;22.67;;
4519;SDS011;2272;49.226;8.108;2022-12-18T05:27:44;55.00;;;25.23;;
4519;SDS011;2272;49.226;8.108;2022-12-18T05:30:11;55.30;;;24.47;;
4519;SDS011;2272;49.226;8.108;2022-12-18T05:32:39;63.17;;;22.50;;
4519;SDS011;2272;49.226;8.108;2022-12-18T05:35:07;50.20;;;23.40;;
4519;SDS011;2272;49.226;8.108;2022-12-18T05:37:35;55.00;;;22.00;;
4519;SDS011;2272;49.226;8.108;2022-12-18T05:40:02;49.30;;;24.53;;
4519;SDS011;2272;49.226;8.108;2022-12-18T05:42:30;51.17;;;23.20;;
4519;SDS011;2272;49.226;8.108;2022-12-18T05:44:58;48.40;;;21.40;;
4519;SDS011;2272;49.226;8.108;2022-12-18T05:47:25;58.90;;;23.57;;
4519;SDS011;2272;49.226;8.108;2022-12-18T05:49:53;50.70;;;24.07;;
4519;SDS011;2272;49.226;8.108;2022-12-18T05:52:19;76.47;;;25.10;;
4519;SDS011;2272;49.226;8.108;2022-12-18T05:54:46;56.97;;;24.17;;
4519;SDS011;2272;49.226;8.108;2022-12-18T05:57:13;49.40;;;21.27;;
4519;SDS011;2272;49.226;8.108;2022-12-18T05:59:39;58.20;;;26.23;;
4519;SDS011;2272;49.226;8.108;2022-12-18T06:02:07;70.60;;;25.00;;
4519;SDS011;2272;49.226;8.108;2022-12-18T06:04:34;45.60;;;22.60;;
4519;SDS011;2272;49.226;8.108;2022-12-18T06:07:01;53.27;;;24.07;;
4519;SDS011;2272;49.226;8.108;2022-12-18T06:09:28;69.80;;;26.60;;
4519;SDS011;2272;49.226;8.108;2022-12-18T06:11:55;56.10;;;25.30;;
4519;SDS011;2272;49.226;8.108;2022-12-18T06:14:22;57.07;;;24.20;;
4519;SDS011;2272;49.226;8.108;2022-12-18T06:16:49;63.40;;;26.63;;
4519;SDS011;2272;49.226;8.108;2022-12-18T06:19:18;53.87;;;24.37;;
4519;SDS011;2272;49.226;8.108;2022-12-18T06:21:44;56.03;;;25.27;;
4519;SDS011;2272;49.226;8.108;2022-12-18T06:24:11;59.07;;;25.27;;
4519;SDS011;2272;49.226;8.108;2022-12-18T06:26:38;63.07;;;24.43;;
4519;SDS011;2272;49.226;8.108;2022-12-18T06:29:05;56.17;;;26.30;;
4519;SDS011;2272;49.226;8.108;2022-12-18T06:31:32;65.13;;;25.83;;
4519;SDS011;2272;49.226;8.108;2022-12-18T06:33:58;57.53;;;25.27;;
4519;SDS011;2272;49.226;8.108;2022-12-18T06:36:28;51.27;;;22.60;;
4519;SDS011;2272;49.226;8.108;2022-12-18T06:38:55;60.83;;;23.37;;
4519;SDS011;2272;49.226;8.108;2022-12-18T06:41:22;63.13;;;25.20;;
4519;SDS011;2272;49.226;8.108;2022-12-18T06:43:49;57.43;;;25.13;;
4519;SDS011;2272;49.226;8.108;2022-12-18T06:46:16;63.00;;;25.90;;
4519;SDS011;2272;49.226;8.108;2022-12-18T06:48:45;60.60;;;24.93;;
4519;SDS011;2272;49.226;8.108;2022-12-18T06:51:15;49.50;;;23.10;;
4519;SDS011;2272;49.226;8.108;2022-12-18T06:53:43;62.23;;;26.70;;
4519;SDS011;2272;49.226;8.108;2022-12-18T06:56:10;66.07;;;25.60;;
4519;SDS011;2272;49.226;8.108;2022-12-18T06:58:37;60.30;;;24.20;;
4519;SDS011;2272;49.226;8.108;2022-12-18T07:01:05;60.80;;;26.43;;
4519;SDS011;2272;49.226;8.108;2022-12-18T07:03:33;75.10;;;25.63;;
4519;SDS011;2272;49.226;8.108;2022-12-18T07:06:00;48.53;;;23.90;;
4519;SDS011;2272;49.226;8.108;2022-12-18T07:08:28;59.60;;;24.27;;
4519;SDS011;2272;49.226;8.108;2022-12-18T07:10:56;78.50;;;27.57;;
4519;SDS011;2272;49.226;8.108;2022-12-18T07:13:23;58.83;;;25.50;;
4519;SDS011;2272;49.226;8.108;2022-12-18T07:15:49;59.37;;;25.57;;
4519;SDS011;2272;49.226;8.108;2022-12-18T07:18:16;55.67;;;25.60;;
4519;SDS011;2272;49.226;8.108;2022-12-18T07:20:43;58.40;;;27.43;;
4519;SDS011;2272;49.226;8.108;2022-12-18T07:23:10;51.70;;;24.73;;
4519;SDS011;2272;49.226;8.108;2022-12-18T07:25:36;54.30;;;25.43;;
4519;SDS011;2272;49.226;8.108;2022-12-18T07:28:05;65.27;;;27.77;;
4519;SDS011;2272;49.226;8.108;2022-12-18T07:30:32;59.80;;;25.60;;
4519;SDS011;2272;49.226;8.108;2022-12-18T07:32:59;53.53;;;25.63;;
4519;SDS011;2272;49.226;8.108;2022-12-18T07:35:25;61.43;;;26.30;;
4519;SDS011;2272;49.226;8.108;2022-12-18T07:37:52;60.83;;;25.03;;
4519;SDS011;2272;49.226;8.108;2022-12-18T07:40:19;58.23;;;26.93;;
4519;SDS011;2272;49.226;8.108;2022-12-18T07:42:45;64.93;;;25.30;;
4519;SDS011;2272;49.226;8.108;2022-12-18T07:45:14;61.33;;;28.00;;
4519;SDS011;2272;49.226;8.108;2022-12-18T07:47:40;62.33;;;26.97;;
4519;SDS011;2272;49.226;8.108;2022-12-18T07:50:07;61.70;;;27.00;;
4519;SDS011;2272;49.226;8.108;2022-12-18T07:52:34;56.00;;;23.87;;
4519;SDS011;2272;49.226;8.108;2022-12-18T07:55:01;63.83;;;26.60;;
4519;SDS011;2272;49.226;8.108;2022-12-18T07:57:28;57.90;;;25.37;;
4519;SDS011;2272;49.226;8.108;2022-12-18T07:59:55;61.87;;;28.80;;
4519;SDS011;2272;49.226;8.108;2022-12-18T08:02:23;61.10;;;26.20;;
4519;SDS011;2272;49.226;8.108;2022-12-18T08:04:49;64.50;;;26.73;;
4519;SDS011;2272;49.226;8.108;2022-12-18T08:07:16;66.03;;;28.90;;
4519;SDS011;2272;49.226;8.108;2022-12-18T08:09:43;64.77;;;26.43;;
4519;SDS011;2272;49.226;8.108;2022-12-18T08:12:10;79.60;;;29.93;;
4519;SDS011;2272;49.226;8.108;2022-12-18T08:14:36;64.40;;;27.17;;
4519;SDS011;2272;49.226;8.108;2022-12-18T08:17:03;70.13;;;26.70;;
4519;SDS011;2272;49.226;8.108;2022-12-18T08:19:31;48.37;;;24.37;;
4519;SDS011;2272;49.226;8.108;2022-12-18T08:21:58;54.87;;;24.57;;
4519;SDS011;2272;49.226;8.108;2022-12-18T08:24:25;59.03;;;26.27;;
4519;SDS011;2272;49.226;8.108;2022-12-18T08:26:51;59.13;;;27.07;;
4519;SDS011;2272;49.226;8.108;2022-12-18T08:29:18;58.70;;;25.90;;
4519;SDS011;2272;49.226;8.108;2022-12-18T08:31:45;65.60;;;28.70;;
4519;SDS011;2272;49.226;8.108;2022-12-18T08:34:11;64.90;;;25.53;;
4519;SDS011;2272;49.226;8.108;2022-12-18T08:36:40;62.70;;;26.67;;
4519;SDS011;2272;49.226;8.108;2022-12-18T08:39:06;67.30;;;27.97;;
4519;SDS011;2272;49.226;8.108;2022-12-18T08:41:33;57.60;;;26.40;;
4519;SDS011;2272;49.226;8.108;2022-12-18T08:44:00;71.53;;;26.17;;
4519;SDS011;2272;49.226;8.108;2022-12-18T08:46:44;59.50;;;23.63;;
4519;SDS011;2272;49.226;8.108;2022-12-18T08:49:11;52.47;;;26.57;;
4519;SDS011;2272;49.226;8.108;2022-12-18T08:51:39;51.27;;;24.87;;
4519;SDS011;2272;49.226;8.108;2022-12-18T08:54:06;60.77;;;25.00;;
4519;SDS011;2272;49.226;8.108;2022-12-18T08:56:33;63.43;;;26.50;;
4519;SDS011;2272;49.226;8.108;2022-12-18T08:59:00;69.00;;;27.10;;
4519;SDS011;2272;49.226;8.108;2022-12-18T09:01:27;56.40;;;25.80;;
4519;SDS011;2272;49.226;8.108;2022-12-18T09:03:53;56.03;;;24.60;;
4519;SDS011;2272;49.226;8.108;2022-12-18T09:06:20;54.50;;;25.10;;
4519;SDS011;2272;49.226;8.108;2022-12-18T09:08:50;51.07;;;23.57;;
4519;SDS011;2272;49.226;8.108;2022-12-18T09:11:18;60.23;;;28.30;;
4519;SDS011;2272;49.226;8.108;2022-12-18T09:13:47;61.00;;;26.60;;
4519;SDS011;2272;49.226;8.108;2022-12-18T09:16:14;49.17;;;25.97;;
4519;SDS011;2272;49.226;8.108;2022-12-18T09:18:41;62.17;;;27.47;;
4519;SDS011;2272;49.226;8.108;2022-12-18T09:21:08;59.43;;;26.23;;
4519;SDS011;2272;49.226;8.108;2022-12-18T09:23:36;60.03;;;27.57;;
4519;SDS011;2272;49.226;8.108;2022-12-18T09:26:04;56.53;;;26.87;;
4519;SDS011;2272;49.226;8.108;2022-12-18T09:28:31;63.67;;;27.90;;
4519;SDS011;2272;49.226;8.108;2022-12-18T09:30:58;56.53;;;25.53;;
4519;SDS011;2272;49.226;8.108;2022-12-18T09:33:24;47.47;;;25.30;;
4519;SDS011;2272;49.226;8.108;2022-12-18T09:35:51;58.50;;;27.27;;
4519;SDS011;2272;49.226;8.108;2022-12-18T09:38:19;52.93;;;26.10;;
4519;SDS011;2272;49.226;8.108;2022-12-18T09:40:46;66.87;;;26.10;;
4519;SDS011;2272;49.226;8.108;2022-12-18T09:43:18;51.00;;;22.90;;
4519;SDS011;2272;49.226;8.108;2022-12-18T09:45:50;60.20;;;24.80;;
4519;SDS011;2272;49.226;8.108;2022-12-18T09:48:20;50.53;;;23.60;;
4519;SDS011;2272;49.226;8.108;2022-12-18T09:50:51;54.27;;;23.50;;
4519;SDS011;2272;49.226;8.108;2022-12-18T09:53:22;50.60;;;23.27;;
4519;SDS011;2272;49.226;8.108;2022-12-18T09:55:52;51.87;;;25.53;;
4519;SDS011;2272;49.226;8.108;2022-12-18T09:58:28;50.50;;;24.47;;
4519;SDS011;2272;49.226;8.108;2022-12-18T10:00:58;44.53;;;22.57;;
4519;SDS011;2272;49.226;8.108;2022-12-18T10:03:24;47.20;;;21.43;;
4519;SDS011;2272;49.226;8.108;2022-12-18T10:05:54;42.37;;;22.97;;
4519;SDS011;2272;49.226;8.108;2022-12-18T10:08:30;55.63;;;25.80;;
4519;SDS011;2272;49.226;8.108;2022-12-18T10:11:03;55.13;;;24.37;;
4519;SDS011;2272;49.226;8.108;2022-12-18T10:13:49;39.13;;;21.27;;
4519;SDS011;2272;49.226;8.108;2022-12-18T10:16:23;48.77;;;22.87;;
4519;SDS011;2272;49.226;8.108;2022-12-18T10:18:59;60.90;;;23.93;;
4519;SDS011;2272;49.226;8.108;2022-12-18T10:21:36;55.70;;;25.47;;
4519;SDS011;2272;49.226;8.108;2022-12-18T10:24:13;65.53;;;27.47;;
4519;SDS011;2272;49.226;8.108;2022-12-18T10:26:47;49.07;;;23.97;;
4519;SDS011;2272;49.226;8.108;2022-12-18T10:29:16;57.90;;;23.93;;
4519;SDS011;2272;49.226;8.108;2022-12-18T10:31:43;50.53;;;25.30;;
4519;SDS011;2272;49.226;8.108;2022-12-18T10:34:10;44.57;;;22.50;;
4519;SDS011;2272;49.226;8.108;2022-12-18T10:36:37;53.67;;;24.83;;
4519;SDS011;2272;49.226;8.108;2022-12-18T10:39:17;47.33;;;23.40;;
4519;SDS011;2272;49.226;8.108;2022-12-18T10:41:47;40.90;;;22.53;;
4519;SDS011;2272;49.226;8.108;2022-12-18T10:44:17;49.00;;;22.60;;
4519;SDS011;2272;49.226;8.108;2022-12-18T10:46:46;45.50;;;23.60;;
4519;SDS011;2272;49.226;8.108;2022-12-18T10:49:22;50.13;;;23.00;;
4519;SDS011;2272;49.226;8.108;2022-12-18T10:51:49;39.90;;;21.20;;
4519;SDS011;2272;49.226;8.108;2022-12-18T10:54:18;61.07;;;26.03;;
4519;SDS011;2272;49.226;8.108;2022-12-18T10:56:47;47.83;;;24.20;;
4519;SDS011;2272;49.226;8.108;2022-12-18T10:59:15;53.73;;;26.53;;
4519;SDS011;2272;49.226;8.108;2022-12-18T11:01:49;48.20;;;24.63;;
4519;SDS011;2272;49.226;8.108;2022-12-18T11:04:18;52.97;;;24.50;;
4519;SDS011;2272;49.226;8.108;2022-12-18T11:06:53;48.97;;;22.47;;
4519;SDS011;2272;49.226;8.108;2022-12-18T11:09:22;57.47;;;25.77;;
4519;SDS011;2272;49.226;8.108;2022-12-18T11:11:50;51.07;;;25.30;;
4519;SDS011;2272;49.226;8.108;2022-12-18T11:14:21;45.27;;;23.03;;
4519;SDS011;2272;49.226;8.108;2022-12-18T11:16:49;43.87;;;23.70;;
4519;SDS011;2272;49.226;8.108;2022-12-18T11:19:21;52.97;;;26.03;;
4519;SDS011;2272;49.226;8.108;2022-12-18T11:21:54;54.67;;;25.23;;
4519;SDS011;2272;49.226;8.108;2022-12-18T11:24:23;45.40;;;23.73;;
4519;SDS011;2272;49.226;8.108;2022-12-18T11:26:54;46.73;;;24.47;;
4519;SDS011;2272;49.226;8.108;2022-12-18T11:29:24;51.30;;;26.10;;
4519;SDS011;2272;49.226;8.108;2022-12-18T11:34:48;53.87;;;24.30;;
4519;SDS011;2272;49.226;8.108;2022-12-18T11:37:17;58.50;;;27.93;;
4519;SDS011;2272;49.226;8.108;2022-12-18T11:39:46;51.83;;;26.00;;
4519;SDS011;2272;49.226;8.108;2022-12-18T11:42:18;46.30;;;23.67;;
4519;SDS011;2272;49.226;8.108;2022-12-18T11:44:52;54.27;;;26.93;;
4519;SDS011;2272;49.226;8.108;2022-12-18T11:47:25;53.27;;;26.10;;
4519;SDS011;2272;49.226;8.108;2022-12-18T11:49:58;52.67;;;25.60;;
4519;SDS011;2272;49.226;8.108;2022-12-18T11:52:28;47.70;;;23.10;;
4519;SDS011;2272;49.226;8.108;2022-12-18T11:55:00;62.30;;;26.17;;
4519;SDS011;2272;49.226;8.108;2022-12-18T11:57:34;50.80;;;26.00;;
4519;SDS011;2272;49.226;8.108;2022-12-18T12:00:11;47.27;;;25.60;;
4519;SDS011;2272;49.226;8.108;2022-12-18T12:02:42;58.93;;;26.57;;
4519;SDS011;2272;49.226;8.108;2022-12-18T12:05:35;62.00;;;27.50;;
4519;SDS011;2272;49.226;8.108;2022-12-18T12:08:15;49.30;;;26.00;;
4519;SDS011;2272;49.226;8.108;2022-12-18T12:10:54;55.93;;;26.60;;
4519;SDS011;2272;49.226;8.108;2022-12-18T12:13:33;54.30;;;27.97;;
4519;SDS011;2272;49.226;8.108;2022-12-18T12:16:12;56.03;;;22.83;;
4519;SDS011;2272;49.226;8.108;2022-12-18T12:18:50;50.40;;;25.00;;
4519;SDS011;2272;49.226;8.108;2022-12-18T12:21:28;47.47;;;23.10;;
4519;SDS011;2272;49.226;8.108;2022-12-18T12:24:03;50.53;;;24.40;;
4519;SDS011;2272;49.226;8.108;2022-12-18T12:26:45;56.37;;;26.10;;
4519;SDS011;2272;49.226;8.108;2022-12-18T12:29:22;53.60;;;25.20;;
4519;SDS011;2272;49.226;8.108;2022-12-18T12:32:04;50.43;;;25.90;;
4519;SDS011;2272;49.226;8.108;2022-12-18T12:34:39;58.70;;;25.90;;
4519;SDS011;2272;49.226;8.108;2022-12-18T12:37:19;62.23;;;27.87;;
4519;SDS011;2272;49.226;8.108;2022-12-18T12:39:51;51.23;;;24.10;;
4519;SDS011;2272;49.226;8.108;2022-12-18T12:42:22;58.33;;;26.33;;
4519;SDS011;2272;49.226;8.108;2022-12-18T12:45:14;49.80;;;23.40;;
4519;SDS011;2272;49.226;8.108;2022-12-18T12:47:48;53.10;;;26.37;;
4519;SDS011;2272;49.226;8.108;2022-12-18T12:50:16;53.13;;;25.90;;
4519;SDS011;2272;49.226;8.108;2022-12-18T12:52:45;56.47;;;26.10;;
4519;SDS011;2272;49.226;8.108;2022-12-18T12:55:16;47.50;;;24.40;;
4519;SDS011;2272;49.226;8.108;2022-12-18T12:57:47;47.63;;;24.87;;
4519;SDS011;2272;49.226;8.108;2022-12-18T13:00:21;53.40;;;25.30;;
4519;SDS011;2272;49.226;8.108;2022-12-18T13:02:54;45.87;;;24.47;;
4519;SDS011;2272;49.226;8.108;2022-12-18T13:05:28;55.87;;;25.40;;
4519;SDS011;2272;49.226;8.108;2022-12-18T13:07:59;66.80;;;28.07;;
4519;SDS011;2272;49.226;8.108;2022-12-18T13:10:32;53.60;;;24.00;;
4519;SDS011;2272;49.226;8.108;2022-12-18T13:13:01;57.93;;;25.17;;
4519;SDS011;2272;49.226;8.108;2022-12-18T13:15:31;51.57;;;23.77;;
4519;SDS011;2272;49.226;8.108;2022-12-18T13:18:04;48.10;;;25.47;;
4519;SDS011;2272;49.226;8.108;2022-12-18T13:20:44;62.80;;;25.33;;
4519;SDS011;2272;49.226;8.108;2022-12-18T13:23:31;60.47;;;27.37;;
4519;SDS011;2272;49.226;8.108;2022-12-18T13:28:57;60.93;;;25.47;;
4519;SDS011;2272;49.226;8.108;2022-12-18T13:34:35;49.90;;;23.90;;
4519;SDS011;2272;49.226;8.108;2022-12-18T13:43:22;42.47;;;22.87;;
4519;SDS011;2272;49.226;8.108;2022-12-18T13:45:59;59.23;;;22.80;;
4519;SDS011;2272;49.226;8.108;2022-12-18T13:48:28;51.23;;;23.20;;
4519;SDS011;2272;49.226;8.108;2022-12-18T13:51:00;47.50;;;24.60;;
4519;SDS011;2272;49.226;8.108;2022-12-18T13:53:30;39.73;;;21.03;;
4519;SDS011;2272;49.226;8.108;2022-12-18T13:56:00;53.43;;;24.03;;
4519;SDS011;2272;49.226;8.108;2022-12-18T13:58:27;54.10;;;24.17;;
4519;SDS011;2272;49.226;8.108;2022-12-18T14:00:54;56.23;;;23.80;;
4519;SDS011;2272;49.226;8.108;2022-12-18T14:03:22;49.80;;;25.77;;
4519;SDS011;2272;49.226;8.108;2022-12-18T14:05:55;37.20;;;22.43;;
4519;SDS011;2272;49.226;8.108;2022-12-18T14:08:26;47.57;;;24.00;;
4519;SDS011;2272;49.226;8.108;2022-12-18T14:10:58;51.80;;;25.37;;
4519;SDS011;2272;49.226;8.108;2022-12-18T14:13:26;46.37;;;21.50;;
4519;SDS011;2272;49.226;8.108;2022-12-18T14:15:56;42.23;;;21.30;;
4519;SDS011;2272;49.226;8.108;2022-12-18T14:18:26;46.70;;;20.87;;
4519;SDS011;2272;49.226;8.108;2022-12-18T14:20:58;45.67;;;23.07;;
4519;SDS011;2272;49.226;8.108;2022-12-18T14:23:32;41.47;;;21.90;;
4519;SDS011;2272;49.226;8.108;2022-12-18T14:26:03;46.17;;;22.30;;
4519;SDS011;2272;49.226;8.108;2022-12-18T14:28:46;56.30;;;24.17;;
4519;SDS011;2272;49.226;8.108;2022-12-18T14:31:16;42.53;;;22.33;;
4519;SDS011;2272;49.226;8.108;2022-12-18T14:33:44;48.97;;;24.97;;
4519;SDS011;2272;49.226;8.108;2022-12-18T14:36:13;42.60;;;22.70;;
4519;SDS011;2272;49.226;8.108;2022-12-18T14:38:47;42.07;;;21.90;;
4519;SDS011;2272;49.226;8.108;2022-12-18T14:41:15;49.37;;;23.03;;
4519;SDS011;2272;49.226;8.108;2022-12-18T14:43:44;54.83;;;24.73;;
4519;SDS011;2272;49.226;8.108;2022-12-18T14:46:26;49.10;;;22.80;;
4519;SDS011;2272;49.226;8.108;2022-12-18T14:48:55;56.63;;;25.60;;
4519;SDS011;2272;49.226;8.108;2022-12-18T14:51:23;44.53;;;22.27;;
4519;SDS011;2272;49.226;8.108;2022-12-18T14:53:54;48.00;;;21.93;;
4519;SDS011;2272;49.226;8.108;2022-12-18T14:56:22;44.43;;;22.27;;
4519;SDS011;2272;49.226;8.108;2022-12-18T14:58:51;45.83;;;21.50;;
4519;SDS011;2272;49.226;8.108;2022-12-18T15:01:24;47.97;;;21.53;;
4519;SDS011;2272;49.226;8.108;2022-12-18T15:03:53;50.90;;;23.00;;
4519;SDS011;2272;49.226;8.108;2022-12-18T15:06:26;46.30;;;22.83;;
4519;SDS011;2272;49.226;8.108;2022-12-18T15:08:59;56.87;;;23.40;;
4519;SDS011;2272;49.226;8.108;2022-12-18T15:14:21;48.50;;;21.70;;
4519;SDS011;2272;49.226;8.108;2022-12-18T15:16:50;49.37;;;23.13;;
4519;SDS011;2272;49.226;8.108;2022-12-18T15:19:19;47.60;;;21.10;;
4519;SDS011;2272;49.226;8.108;2022-12-18T15:21:47;39.97;;;19.87;;
4519;SDS011;2272;49.226;8.108;2022-12-18T15:24:18;41.10;;;20.77;;